createdAt,value
2018-08-28T00:00:09.373Z,17.53
2018-08-28T00:02:33.421Z,17.25
2018-08-28T00:04:57.627Z,16.63
2018-08-28T00:07:21.545Z,17.47
2018-08-28T00:09:45.651Z,17.29
2018-08-28T00:12:09.518Z,17.54
2018-08-28T00:14:33.384Z,17.23
2018-08-28T00:16:57.314Z,17.31
2018-08-28T00:19:22.513Z,17.07
2018-08-28T00:21:46.551Z,17.31
2018-08-28T00:24:10.428Z,17.50
2018-08-28T00:26:34.299Z,17.30
2018-08-28T00:28:58.178Z,17.46
2018-08-28T00:31:22.079Z,17.04
2018-08-28T00:33:46.110Z,17.00
2018-08-28T00:36:09.989Z,17.28
2018-08-28T00:38:33.867Z,17.23
2018-08-28T00:40:57.774Z,17.27
2018-08-28T00:43:21.684Z,17.38
2018-08-28T00:45:45.669Z,17.55
2018-08-28T00:48:09.531Z,17.46
2018-08-28T00:50:33.431Z,17.53
2018-08-28T00:52:57.545Z,17.17
2018-08-28T00:55:21.403Z,17.32
2018-08-28T00:57:45.252Z,17.35
2018-08-28T01:00:10.070Z,16.99
2018-08-28T01:02:33.965Z,17.09
2018-08-28T01:04:57.822Z,16.86
2018-08-28T01:07:21.809Z,17.11
2018-08-28T01:09:45.702Z,16.87
2018-08-28T01:12:09.634Z,16.80
2018-08-28T01:14:33.531Z,17.33
2018-08-28T01:16:57.431Z,16.87
2018-08-28T01:19:21.303Z,17.17
2018-08-28T01:21:45.148Z,17.20
2018-08-28T01:24:09.062Z,17.16
2018-08-28T01:26:32.906Z,16.91
2018-08-28T01:28:56.813Z,16.82
2018-08-28T01:31:20.711Z,17.26
2018-08-28T01:33:44.596Z,17.21
2018-08-28T01:36:08.508Z,17.01
2018-08-28T01:38:32.395Z,17.06
2018-08-28T01:40:56.315Z,17.08
2018-08-28T01:43:23.676Z,17.23
2018-08-28T01:45:47.539Z,17.10
2018-08-28T01:48:11.439Z,16.83
2018-08-28T01:50:35.294Z,17.34
2018-08-28T01:52:59.237Z,17.07
2018-08-28T01:55:23.111Z,17.29
2018-08-28T01:57:46.982Z,17.50
2018-08-28T02:00:10.869Z,17.57
2018-08-28T02:02:34.793Z,17.10
2018-08-28T02:04:58.671Z,17.24
2018-08-28T02:07:22.613Z,17.21
2018-08-28T02:09:46.483Z,17.22
2018-08-28T02:12:10.407Z,17.37
2018-08-28T02:14:34.424Z,16.97
2018-08-28T02:16:58.439Z,16.88
2018-08-28T02:19:22.340Z,17.04
2018-08-28T02:21:46.214Z,17.29
2018-08-28T02:24:10.158Z,17.25
2018-08-28T02:26:34.012Z,17.24
2018-08-28T02:28:57.887Z,17.08
2018-08-28T02:31:21.787Z,17.00
2018-08-28T02:33:45.719Z,16.97
2018-08-28T02:36:09.551Z,16.90
2018-08-28T02:38:33.606Z,17.08
2018-08-28T02:40:57.463Z,16.95
2018-08-28T02:43:21.357Z,17.08
2018-08-28T02:45:45.200Z,17.18
2018-08-28T02:48:09.059Z,17.28
2018-08-28T02:50:32.955Z,16.98
2018-08-28T02:52:56.820Z,16.88
2018-08-28T02:55:20.767Z,16.64
2018-08-28T02:57:45.397Z,17.06
2018-08-28T03:00:09.271Z,17.15
2018-08-28T03:02:33.165Z,17.27
2018-08-28T03:04:57.029Z,17.23
2018-08-28T03:07:20.929Z,17.58
2018-08-28T03:09:44.798Z,17.58
2018-08-28T03:12:08.643Z,17.49
2018-08-28T03:14:32.575Z,17.46
2018-08-28T03:16:56.422Z,17.39
2018-08-28T03:19:20.346Z,17.29
2018-08-28T03:21:44.223Z,17.49
2018-08-28T03:24:08.072Z,17.26
2018-08-28T03:26:31.961Z,17.38
2018-08-28T03:28:55.819Z,17.36
2018-08-28T03:31:19.690Z,17.29
2018-08-28T03:33:43.549Z,17.18
2018-08-28T03:36:07.487Z,17.18
2018-08-28T03:38:31.415Z,17.16
2018-08-28T03:40:55.272Z,17.34
2018-08-28T03:43:19.667Z,17.10
2018-08-28T03:45:43.513Z,17.10
2018-08-28T03:48:07.383Z,16.91
2018-08-28T03:50:31.455Z,16.90
2018-08-28T03:52:55.313Z,16.71
2018-08-28T03:55:19.352Z,16.94
2018-08-28T03:57:43.145Z,17.42
2018-08-28T04:00:07.163Z,17.45
2018-08-28T04:02:31.095Z,17.26
2018-08-28T04:04:54.947Z,17.33
2018-08-28T04:07:18.845Z,17.28
2018-08-28T04:09:42.715Z,17.26
2018-08-28T04:12:06.225Z,17.32
2018-08-28T04:14:30.151Z,17.31
2018-08-28T04:16:54.054Z,17.11
2018-08-28T04:19:17.905Z,17.18
2018-08-28T04:21:41.783Z,17.17
2018-08-28T04:24:05.644Z,17.14
2018-08-28T04:26:29.545Z,16.89
2018-08-28T04:28:53.453Z,17.14
2018-08-28T04:31:17.321Z,17.09
2018-08-28T04:33:41.204Z,16.94
2018-08-28T04:36:05.142Z,16.98
2018-08-28T04:38:28.971Z,16.92
2018-08-28T04:40:52.924Z,16.98
2018-08-28T04:43:16.777Z,16.89
2018-08-28T04:45:40.630Z,16.60
2018-08-28T04:48:04.564Z,16.77
2018-08-28T04:50:28.417Z,16.83
2018-08-28T04:52:52.473Z,16.84
2018-08-28T04:55:16.386Z,17.03
2018-08-28T04:57:40.293Z,17.03
2018-08-28T05:00:04.338Z,17.02
2018-08-28T05:02:35.868Z,17.00
2018-08-28T05:04:59.798Z,17.04
2018-08-28T05:07:23.659Z,17.04
2018-08-28T05:09:47.637Z,16.98
2018-08-28T05:12:11.519Z,17.05
2018-08-28T05:14:35.422Z,16.83
2018-08-28T05:16:59.724Z,16.94
2018-08-28T05:19:23.612Z,16.65
2018-08-28T05:21:47.526Z,16.90
2018-08-28T05:24:11.415Z,16.66
2018-08-28T05:26:35.293Z,16.78
2018-08-28T05:28:59.282Z,16.43
2018-08-28T05:31:23.143Z,16.60
2018-08-28T05:33:46.975Z,16.58
2018-08-28T05:36:10.847Z,16.65
2018-08-28T05:38:34.694Z,16.73
2018-08-28T05:40:58.558Z,17.04
2018-08-28T05:43:22.463Z,16.61
2018-08-28T05:45:46.425Z,16.87
2018-08-28T05:48:10.345Z,16.95
2018-08-28T05:50:34.242Z,16.51
2018-08-28T05:52:58.138Z,17.04
2018-08-28T05:55:22.020Z,16.74
2018-08-28T05:57:45.965Z,16.91
2018-08-28T06:00:09.864Z,17.23
2018-08-28T06:02:33.753Z,16.87
2018-08-28T06:04:57.792Z,17.06
2018-08-28T06:07:21.673Z,17.27
2018-08-28T06:09:45.794Z,17.19
2018-08-28T06:12:09.640Z,17.11
2018-08-28T06:14:33.596Z,16.54
2018-08-28T06:16:57.430Z,16.71
2018-08-28T06:19:21.288Z,16.94
2018-08-28T06:21:45.226Z,16.78
2018-08-28T06:24:09.148Z,17.05
2018-08-28T06:26:33.098Z,16.91
2018-08-28T06:28:56.945Z,17.04
2018-08-28T06:31:20.878Z,17.08
2018-08-28T06:33:44.839Z,16.96
2018-08-28T06:36:08.698Z,17.12
2018-08-28T06:38:32.599Z,16.70
2018-08-28T06:40:56.448Z,17.14
2018-08-28T06:43:20.372Z,17.28
2018-08-28T06:45:44.312Z,17.39
2018-08-28T06:48:08.212Z,17.38
2018-08-28T06:50:32.076Z,17.02
2018-08-28T06:52:55.968Z,17.64
2018-08-28T06:55:19.831Z,17.34
2018-08-28T06:57:43.748Z,17.04
2018-08-28T07:00:08.197Z,17.17
2018-08-28T07:02:32.102Z,17.23
2018-08-28T07:04:55.993Z,17.24
2018-08-28T07:07:19.857Z,17.26
2018-08-28T07:09:43.746Z,17.23
2018-08-28T07:12:07.431Z,17.34
2018-08-28T07:14:31.326Z,17.62
2018-08-28T07:16:55.232Z,17.28
2018-08-28T07:19:19.096Z,17.56
2018-08-28T07:21:43.072Z,17.46
2018-08-28T07:24:07.258Z,17.61
2018-08-28T07:26:31.178Z,17.68
2018-08-28T07:28:55.085Z,17.67
2018-08-28T07:31:18.989Z,17.79
2018-08-28T07:33:42.826Z,18.13
2018-08-28T07:36:06.814Z,17.73
2018-08-28T07:38:30.687Z,18.05
2018-08-28T07:40:54.570Z,18.11
2018-08-28T07:43:18.468Z,17.94
2018-08-28T07:45:42.334Z,18.02
2018-08-28T07:48:06.340Z,18.58
2018-08-28T07:50:30.301Z,18.61
2018-08-28T07:52:54.176Z,18.68
2018-08-28T07:55:18.143Z,18.46
2018-08-28T07:57:42.200Z,18.73
2018-08-28T08:00:06.691Z,19.05
2018-08-28T08:02:30.559Z,18.72
2018-08-28T08:04:54.422Z,18.99
2018-08-28T08:07:18.322Z,18.82
2018-08-28T08:09:42.179Z,18.95
2018-08-28T08:12:06.292Z,19.69
2018-08-28T08:14:30.197Z,18.98
2018-08-28T08:16:54.090Z,19.52
2018-08-28T08:19:18.001Z,19.30
2018-08-28T08:21:41.817Z,19.58
2018-08-28T08:24:06.060Z,19.38
2018-08-28T08:26:29.941Z,19.29
2018-08-28T08:28:53.788Z,19.54
2018-08-28T08:31:17.714Z,19.75
2018-08-28T08:33:41.556Z,19.92
2018-08-28T08:36:05.722Z,19.84
2018-08-28T08:38:29.621Z,20.28
2018-08-28T08:40:53.490Z,19.45
2018-08-28T08:43:17.400Z,19.70
2018-08-28T08:45:41.264Z,19.88
2018-08-28T08:48:05.126Z,19.97
2018-08-28T08:50:29.028Z,20.02
2018-08-28T08:52:52.916Z,20.36
2018-08-28T08:55:16.803Z,20.69
2018-08-28T08:57:40.858Z,20.31
2018-08-28T09:00:04.763Z,20.38
2018-08-28T09:02:28.637Z,20.38
2018-08-28T09:04:52.535Z,20.75
2018-08-28T09:07:16.439Z,20.50
2018-08-28T09:09:40.489Z,20.82
2018-08-28T09:12:04.399Z,20.62
2018-08-28T09:14:28.243Z,20.56
2018-08-28T09:16:52.225Z,20.57
2018-08-28T09:19:16.129Z,20.81
2018-08-28T09:21:40.366Z,21.33
2018-08-28T09:24:04.227Z,21.52
2018-08-28T09:26:28.139Z,21.59
2018-08-28T09:28:52.045Z,21.72
2018-08-28T09:31:15.991Z,21.21
2018-08-28T09:33:40.058Z,21.36
2018-08-28T09:36:03.895Z,21.93
2018-08-28T09:38:27.758Z,22.08
2018-08-28T09:40:51.660Z,21.89
2018-08-28T09:43:15.554Z,21.84
2018-08-28T09:45:39.929Z,21.97
2018-08-28T09:48:03.894Z,21.91
2018-08-28T09:50:27.776Z,21.73
2018-08-28T09:52:51.669Z,21.69
2018-08-28T09:55:15.565Z,21.04
2018-08-28T09:57:39.703Z,21.24
2018-08-28T10:00:03.574Z,21.65
2018-08-28T10:02:27.613Z,21.55
2018-08-28T10:04:51.567Z,21.93
2018-08-28T10:07:15.577Z,22.74
2018-08-28T10:09:39.670Z,22.53
2018-08-28T10:12:03.524Z,22.30
2018-08-28T10:14:27.470Z,21.70
2018-08-28T10:16:51.539Z,21.90
2018-08-28T10:19:15.431Z,22.26
2018-08-28T10:21:39.757Z,22.44
2018-08-28T10:24:03.619Z,22.15
2018-08-28T10:26:27.591Z,22.82
2018-08-28T10:28:51.536Z,23.17
2018-08-28T10:31:15.434Z,22.73
2018-08-28T10:33:39.475Z,21.79
2018-08-28T10:36:03.827Z,21.43
2018-08-28T10:38:27.732Z,21.73
2018-08-28T10:40:51.635Z,21.87
2018-08-28T10:43:15.741Z,22.19
2018-08-28T10:45:39.703Z,21.53
2018-08-28T10:48:03.600Z,21.40
2018-08-28T10:50:27.490Z,21.60
2018-08-28T10:52:51.559Z,21.93
2018-08-28T10:55:15.634Z,22.34
2018-08-28T10:57:39.504Z,22.30
2018-08-28T11:00:03.389Z,22.72
2018-08-28T11:02:27.309Z,22.52
2018-08-28T11:04:51.199Z,22.16
2018-08-28T11:07:15.407Z,22.17
2018-08-28T11:09:39.260Z,22.40
2018-08-28T11:12:03.138Z,22.50
2018-08-28T11:14:27.033Z,22.16
2018-08-28T11:16:51.151Z,22.38
2018-08-28T11:19:15.515Z,22.52
2018-08-28T11:21:39.405Z,22.74
2018-08-28T11:24:03.533Z,23.36
2018-08-28T11:26:27.428Z,23.32
2018-08-28T11:28:51.297Z,23.65
2018-08-28T11:31:15.531Z,23.77
2018-08-28T11:33:39.369Z,23.42
2018-08-28T11:36:03.216Z,23.72
2018-08-28T11:38:27.147Z,22.96
2018-08-28T11:40:51.113Z,23.71
2018-08-28T11:43:15.296Z,23.17
2018-08-28T11:45:39.198Z,22.54
2018-08-28T11:48:03.071Z,23.02
2018-08-28T11:50:27.004Z,22.85
2018-08-28T11:52:50.941Z,22.93
2018-08-28T11:55:15.010Z,23.29
2018-08-28T11:57:38.927Z,23.40
2018-08-28T12:00:03.047Z,23.85
2018-08-28T12:02:27.009Z,24.31
2018-08-28T12:04:50.987Z,23.80
2018-08-28T12:07:15.043Z,22.81
2018-08-28T12:09:38.943Z,23.06
2018-08-28T12:12:02.850Z,23.03
2018-08-28T12:14:26.795Z,22.64
2018-08-28T12:16:50.792Z,23.70
2018-08-28T12:19:14.754Z,23.12
2018-08-28T12:21:38.752Z,22.95
2018-08-28T12:24:02.644Z,22.74
2018-08-28T12:26:26.581Z,22.64
2018-08-28T12:28:50.572Z,22.86
2018-08-28T12:31:14.433Z,23.07
2018-08-28T12:33:38.320Z,23.70
2018-08-28T12:36:02.203Z,23.31
2018-08-28T12:38:26.083Z,22.72
2018-08-28T12:40:50.087Z,22.76
2018-08-28T12:43:13.963Z,22.85
2018-08-28T12:45:37.871Z,23.36
2018-08-28T12:48:01.757Z,23.24
2018-08-28T12:50:25.630Z,22.97
2018-08-28T12:52:49.654Z,23.54
2018-08-28T12:55:13.549Z,23.06
2018-08-28T12:57:37.471Z,22.77
2018-08-28T13:00:01.344Z,22.64
2018-08-28T13:02:25.637Z,22.92
2018-08-28T13:04:49.616Z,23.02
2018-08-28T13:07:13.530Z,22.86
2018-08-28T13:09:37.580Z,23.19
2018-08-28T13:12:01.496Z,22.87
2018-08-28T13:14:25.484Z,22.72
2018-08-28T13:16:49.563Z,23.08
2018-08-28T13:19:13.432Z,22.95
2018-08-28T13:21:37.318Z,23.14
2018-08-28T13:24:01.209Z,23.36
2018-08-28T13:26:25.097Z,23.34
2018-08-28T13:28:49.091Z,23.61
2018-08-28T13:31:13.120Z,23.11
2018-08-28T13:33:37.017Z,23.77
2018-08-28T13:36:00.921Z,23.47
2018-08-28T13:38:24.830Z,23.81
2018-08-28T13:40:49.113Z,23.71
2018-08-28T13:43:12.777Z,23.01
2018-08-28T13:45:36.684Z,22.57
2018-08-28T13:48:00.579Z,22.72
2018-08-28T13:50:24.577Z,23.81
2018-08-28T13:52:48.616Z,23.22
2018-08-28T13:55:12.542Z,22.75
2018-08-28T13:57:36.637Z,23.56
2018-08-28T14:00:00.593Z,23.13
2018-08-28T14:02:24.454Z,23.05
2018-08-28T14:04:48.355Z,23.12
2018-08-28T14:07:12.381Z,23.14
2018-08-28T14:09:36.252Z,22.94
2018-08-28T14:12:00.149Z,23.40
2018-08-28T14:14:24.210Z,23.23
2018-08-28T14:16:48.150Z,23.17
2018-08-28T14:19:12.023Z,23.24
2018-08-28T14:21:35.948Z,22.85
2018-08-28T14:23:59.858Z,22.56
2018-08-28T14:26:23.859Z,23.18
2018-08-28T14:28:47.867Z,23.26
2018-08-28T14:31:11.701Z,23.56
2018-08-28T14:33:35.599Z,23.47
2018-08-28T14:35:59.570Z,23.08
2018-08-28T14:38:23.523Z,22.40
2018-08-28T14:40:47.420Z,23.20
2018-08-28T14:43:11.300Z,24.24
2018-08-28T14:45:35.222Z,23.12
2018-08-28T14:47:59.201Z,22.81
2018-08-28T14:50:23.425Z,23.66
2018-08-28T14:52:47.197Z,24.06
2018-08-28T14:55:11.135Z,24.75
2018-08-28T14:57:35.205Z,24.63
2018-08-28T14:59:59.164Z,24.37
2018-08-28T15:02:23.212Z,24.78
2018-08-28T15:04:47.175Z,25.24
2018-08-28T15:07:11.321Z,25.24
2018-08-28T15:09:35.092Z,24.98
2018-08-28T15:11:59.017Z,25.75
2018-08-28T15:14:23.022Z,26.74
2018-08-28T15:16:46.949Z,24.83
2018-08-28T15:19:10.877Z,25.20
2018-08-28T15:21:34.880Z,25.49
2018-08-28T15:23:59.455Z,25.23
2018-08-28T15:26:23.468Z,25.28
2018-08-28T15:28:47.360Z,25.19
2018-08-28T15:31:11.354Z,24.89
2018-08-28T15:33:35.237Z,25.52
2018-08-28T15:35:59.132Z,25.20
2018-08-28T15:38:23.034Z,24.87
2018-08-28T15:40:46.942Z,24.75
2018-08-28T15:43:11.016Z,25.49
2018-08-28T15:45:34.936Z,25.86
2018-08-28T15:47:58.867Z,25.37
2018-08-28T15:50:22.827Z,25.03
2018-08-28T15:52:46.710Z,25.13
2018-08-28T15:55:10.771Z,26.00
2018-08-28T15:57:34.759Z,26.09
2018-08-28T15:59:58.674Z,25.53
2018-08-28T16:02:22.814Z,25.36
2018-08-28T16:04:46.865Z,25.85
2018-08-28T16:07:10.626Z,25.65
2018-08-28T16:09:34.545Z,25.30
2018-08-28T16:11:58.422Z,25.20
2018-08-28T16:14:22.501Z,25.47
2018-08-28T16:16:47.041Z,25.60
2018-08-28T16:19:10.939Z,25.50
2018-08-28T16:21:45.611Z,25.40
2018-08-28T16:24:09.524Z,25.14
2018-08-28T16:26:33.582Z,25.30
2018-08-28T16:28:57.511Z,25.52
2018-08-28T16:31:21.418Z,25.67
2018-08-28T16:33:45.384Z,25.44
2018-08-28T16:36:09.253Z,25.78
2018-08-28T16:38:33.287Z,25.39
2018-08-28T16:40:57.285Z,25.16
2018-08-28T16:43:21.222Z,25.21
2018-08-28T16:45:45.148Z,25.24
2018-08-28T16:48:09.065Z,25.48
2018-08-28T16:50:33.395Z,25.16
2018-08-28T16:52:57.345Z,25.21
2018-08-28T16:55:21.303Z,25.30
2018-08-28T16:57:45.229Z,24.92
2018-08-28T17:00:09.161Z,25.11
2018-08-28T17:02:33.290Z,25.22
2018-08-28T17:04:57.211Z,25.08
2018-08-28T17:07:21.273Z,24.82
2018-08-28T17:09:45.261Z,24.79
2018-08-28T17:12:09.206Z,24.93
2018-08-28T17:14:33.259Z,24.97
2018-08-28T17:16:57.177Z,24.88
2018-08-28T17:19:21.217Z,24.80
2018-08-28T17:21:45.142Z,24.80
2018-08-28T17:24:09.005Z,24.80
2018-08-28T17:26:33.226Z,24.77
2018-08-28T17:28:57.150Z,24.75
2018-08-28T17:31:21.041Z,24.63
2018-08-28T17:33:45.046Z,24.59
2018-08-28T17:36:09.003Z,24.41
2018-08-28T17:38:33.050Z,24.35
2018-08-28T17:40:57.008Z,24.18
2018-08-28T17:43:21.029Z,24.28
2018-08-28T17:45:45.041Z,24.17
2018-08-28T17:48:09.043Z,24.12
2018-08-28T17:50:32.980Z,24.04
2018-08-28T17:52:56.935Z,23.88
2018-08-28T17:55:20.930Z,23.91
2018-08-28T17:57:44.889Z,23.49
2018-08-28T18:00:08.843Z,23.50
2018-08-28T18:02:32.784Z,23.51
2018-08-28T18:04:56.821Z,23.45
2018-08-28T18:07:20.736Z,23.30
2018-08-28T18:09:44.778Z,23.23
2018-08-28T18:12:08.869Z,22.79
2018-08-28T18:14:32.881Z,22.62
2018-08-28T18:16:56.806Z,22.65
2018-08-28T18:19:20.718Z,22.68
2018-08-28T18:21:44.613Z,22.65
2018-08-28T18:24:08.503Z,22.77
2018-08-28T18:26:32.500Z,22.59
2018-08-28T18:28:56.534Z,22.50
2018-08-28T18:31:20.407Z,22.45
2018-08-28T18:33:44.384Z,22.37
2018-08-28T18:36:08.313Z,22.37
2018-08-28T18:38:32.259Z,22.33
2018-08-28T18:40:56.319Z,22.20
2018-08-28T18:43:20.259Z,22.08
2018-08-28T18:45:44.406Z,22.18
2018-08-28T18:48:08.362Z,22.01
2018-08-28T18:50:32.353Z,22.04
2018-08-28T18:52:56.320Z,21.75
2018-08-28T18:55:20.286Z,21.84
2018-08-28T18:57:44.252Z,21.88
2018-08-28T19:00:08.272Z,21.83
2018-08-28T19:02:32.273Z,21.74
2018-08-28T19:04:57.150Z,21.80
2018-08-28T19:07:21.095Z,21.82
2018-08-28T19:09:45.169Z,21.83
2018-08-28T19:12:09.069Z,21.72
2018-08-28T19:14:33.045Z,21.71
2018-08-28T19:16:57.069Z,21.78
2018-08-28T19:19:20.983Z,21.63
2018-08-28T19:21:44.971Z,21.51
2018-08-28T19:24:09.179Z,21.39
2018-08-28T19:26:33.147Z,21.48
2018-08-28T19:28:57.085Z,21.43
2018-08-28T19:31:21.067Z,21.18
2018-08-28T19:33:45.022Z,21.17
2018-08-28T19:36:08.975Z,21.25
2018-08-28T19:38:32.885Z,21.09
2018-08-28T19:40:57.867Z,21.05
2018-08-28T19:43:21.865Z,20.97
2018-08-28T19:45:45.821Z,21.09
2018-08-28T19:48:09.735Z,20.76
2018-08-28T19:50:33.701Z,20.97
2018-08-28T19:52:57.765Z,20.99
2018-08-28T19:55:21.928Z,20.91
2018-08-28T19:57:45.933Z,20.58
2018-08-28T20:00:10.579Z,20.18
2018-08-28T20:02:34.529Z,20.28
2018-08-28T20:04:58.493Z,20.34
2018-08-28T20:07:22.443Z,20.10
2018-08-28T20:09:46.438Z,19.90
2018-08-28T20:12:10.520Z,19.93
2018-08-28T20:14:34.475Z,19.77
2018-08-28T20:16:58.386Z,20.06
2018-08-28T20:19:22.321Z,19.84
2018-08-28T20:21:46.230Z,19.69
2018-08-28T20:24:10.123Z,19.67
2018-08-28T20:26:34.015Z,19.66
2018-08-28T20:28:58.005Z,19.88
2018-08-28T20:31:21.958Z,19.69
2018-08-28T20:33:45.971Z,19.79
2018-08-28T20:36:09.874Z,19.73
2018-08-28T20:38:33.817Z,19.75
2018-08-28T20:40:57.759Z,19.77
2018-08-28T20:43:21.678Z,19.60
2018-08-28T20:45:45.625Z,19.50
2018-08-28T20:48:09.509Z,19.49
2018-08-28T20:50:33.475Z,19.43
2018-08-28T20:52:57.380Z,19.51
2018-08-28T20:55:21.368Z,19.58
2018-08-28T20:57:45.510Z,19.47
2018-08-28T21:00:09.479Z,19.35
2018-08-28T21:02:33.368Z,19.20
2018-08-28T21:04:57.285Z,19.37
2018-08-28T21:07:21.249Z,19.37
2018-08-28T21:09:45.139Z,19.14
2018-08-28T21:12:09.394Z,18.86
2018-08-28T21:14:33.478Z,19.06
2018-08-28T21:16:57.420Z,19.14
2018-08-28T21:19:21.363Z,19.18
2018-08-28T21:21:45.235Z,19.02
2018-08-28T21:24:09.372Z,19.17
2018-08-28T21:26:33.264Z,18.90
2018-08-28T21:28:57.245Z,18.96
2018-08-28T21:31:21.212Z,19.04
2018-08-28T21:33:45.167Z,18.90
2018-08-28T21:36:10.370Z,18.75
2018-08-28T21:38:34.213Z,18.67
2018-08-28T21:40:58.141Z,18.72
2018-08-28T21:43:22.044Z,18.79
2018-08-28T21:45:45.927Z,18.38
2018-08-28T21:48:09.878Z,18.53
2018-08-28T21:50:33.761Z,18.77
2018-08-28T21:52:58.008Z,18.62
2018-08-28T21:55:21.959Z,18.49
2018-08-28T21:57:45.828Z,18.52
2018-08-28T22:00:09.700Z,18.58
2018-08-28T22:02:33.662Z,18.37
2018-08-28T22:04:57.874Z,18.54
2018-08-28T22:07:27.133Z,18.50
2018-08-28T22:09:51.040Z,18.27
2018-08-28T22:12:14.986Z,18.32
2018-08-28T22:14:38.912Z,18.33
2018-08-28T22:17:03.082Z,18.45
2018-08-28T22:19:26.950Z,18.38
2018-08-28T22:21:50.882Z,18.34
2018-08-28T22:24:14.752Z,18.20
2018-08-28T22:26:38.646Z,18.16
2018-08-28T22:29:02.780Z,18.18
2018-08-28T22:31:26.653Z,18.03
2018-08-28T22:33:50.547Z,18.19
2018-08-28T22:36:14.448Z,17.99
2018-08-28T22:38:38.354Z,17.90
2018-08-28T22:41:02.276Z,17.73
2018-08-28T22:43:26.161Z,17.83
2018-08-28T22:45:50.285Z,17.81
2018-08-28T22:48:14.383Z,17.93
2018-08-28T22:50:38.233Z,17.62
2018-08-28T22:53:02.086Z,17.75
2018-08-28T22:55:26.005Z,17.79
2018-08-28T22:57:49.860Z,17.74
2018-08-28T23:00:13.748Z,17.60
2018-08-28T23:02:37.648Z,17.31
2018-08-28T23:05:01.686Z,17.43
2018-08-28T23:07:25.571Z,17.51
2018-08-28T23:09:49.647Z,17.54
2018-08-28T23:12:13.533Z,17.44
2018-08-28T23:14:37.429Z,17.40
2018-08-28T23:17:01.499Z,17.10
2018-08-28T23:19:25.485Z,17.17
2018-08-28T23:21:49.399Z,17.15
2018-08-28T23:24:13.303Z,16.96
2018-08-28T23:26:37.156Z,16.94
2018-08-28T23:29:01.351Z,17.02
2018-08-28T23:31:25.419Z,16.86
2018-08-28T23:33:49.282Z,16.54
2018-08-28T23:36:13.248Z,16.75
2018-08-28T23:38:37.141Z,16.74
2018-08-28T23:41:01.214Z,16.87
2018-08-28T23:43:25.068Z,16.74
2018-08-28T23:45:48.915Z,16.87
2018-08-28T23:48:12.801Z,16.94
2018-08-28T23:50:36.675Z,16.93
2018-08-28T23:53:00.700Z,16.92
2018-08-28T23:55:24.622Z,16.95
2018-08-28T23:57:48.474Z,16.76
